createdAt,value
2023-05-10T00:00:35.017Z,8.57
2023-05-10T00:03:05.629Z,8.50
2023-05-10T00:05:33.561Z,8.52
2023-05-10T00:08:02.712Z,8.50
2023-05-10T00:10:30.552Z,8.48
2023-05-10T00:12:58.354Z,8.44
2023-05-10T00:15:26.154Z,8.37
2023-05-10T00:17:54.055Z,8.33
2023-05-10T00:20:22.046Z,8.42
2023-05-10T00:22:49.950Z,8.32
2023-05-10T00:25:19.940Z,8.25
2023-05-10T00:27:47.816Z,8.22
2023-05-10T00:30:16.152Z,8.12
2023-05-10T00:32:44.688Z,8.04
2023-05-10T00:35:12.423Z,8.17
2023-05-10T00:37:40.335Z,8.14
2023-05-10T00:40:09.531Z,8.06
2023-05-10T00:42:38.729Z,8.12
2023-05-10T00:45:08.208Z,8.19
2023-05-10T00:47:36.965Z,8.13
2023-05-10T00:50:05.730Z,8.09
2023-05-10T00:52:33.643Z,8.07
2023-05-10T00:55:02.434Z,8.03
2023-05-10T00:57:30.477Z,8.06
2023-05-10T01:00:01.326Z,7.98
2023-05-10T01:02:29.741Z,7.90
2023-05-10T01:04:57.660Z,7.93
2023-05-10T01:07:25.462Z,7.88
2023-05-10T01:09:53.461Z,7.91
2023-05-10T01:12:21.974Z,7.77
2023-05-10T01:14:50.528Z,7.79
2023-05-10T01:17:20.141Z,7.80
2023-05-10T01:19:48.342Z,7.63
2023-05-10T01:22:41.958Z,7.61
2023-05-10T01:25:30.445Z,7.56
2023-05-10T01:28:26.176Z,7.49
2023-05-10T01:31:20.709Z,7.38
2023-05-10T01:33:56.896Z,7.35
2023-05-10T01:36:32.760Z,7.25
2023-05-10T01:39:07.467Z,7.05
2023-05-10T01:41:42.136Z,7.06
2023-05-10T01:44:18.845Z,6.93
2023-05-10T01:46:55.358Z,6.84
2023-05-10T01:49:28.372Z,6.86
2023-05-10T01:52:08.443Z,6.90
2023-05-10T01:54:40.594Z,6.79
2023-05-10T01:57:11.093Z,6.62
2023-05-10T01:59:41.966Z,6.46
2023-05-10T02:02:12.950Z,6.43
2023-05-10T02:04:44.095Z,6.37
2023-05-10T02:07:12.659Z,6.28
2023-05-10T02:09:40.740Z,6.27
2023-05-10T02:12:09.683Z,6.23
2023-05-10T02:14:39.056Z,6.26
2023-05-10T02:17:09.695Z,6.22
2023-05-10T02:19:40.568Z,6.24
2023-05-10T02:22:11.019Z,6.24
2023-05-10T02:24:40.782Z,6.24
2023-05-10T02:27:10.858Z,6.21
2023-05-10T02:29:39.958Z,6.17
2023-05-10T02:32:08.387Z,6.13
2023-05-10T02:34:36.654Z,6.09
2023-05-10T02:37:04.931Z,6.04
2023-05-10T02:39:34.554Z,5.95
2023-05-10T02:42:03.833Z,5.88
2023-05-10T02:44:32.348Z,5.84
2023-05-10T02:47:00.928Z,5.89
2023-05-10T02:49:28.812Z,5.90
2023-05-10T02:52:02.137Z,5.95
2023-05-10T02:54:37.998Z,5.93
2023-05-10T02:57:07.933Z,6.01
2023-05-10T02:59:35.999Z,6.01
2023-05-10T03:02:04.284Z,6.06
2023-05-10T03:04:32.100Z,6.06
2023-05-10T03:07:00.234Z,6.10
2023-05-10T03:09:28.248Z,6.13
2023-05-10T03:12:05.271Z,6.23
2023-05-10T03:14:47.672Z,6.38
2023-05-10T03:17:21.649Z,6.51
2023-05-10T03:19:55.657Z,6.58
2023-05-10T03:22:28.321Z,6.70
2023-05-10T03:24:58.727Z,6.62
2023-05-10T03:27:30.053Z,6.84
2023-05-10T03:29:58.801Z,6.93
2023-05-10T03:32:28.128Z,7.02
2023-05-10T03:34:55.999Z,7.03
2023-05-10T03:37:23.764Z,7.12
2023-05-10T03:39:51.707Z,7.27
2023-05-10T03:42:19.807Z,7.43
2023-05-10T03:44:50.193Z,7.42
2023-05-10T03:47:18.054Z,7.53
2023-05-10T03:49:46.227Z,7.59
2023-05-10T03:52:14.249Z,7.70
2023-05-10T03:54:42.256Z,7.82
2023-05-10T03:57:10.613Z,7.90
2023-05-10T03:59:38.393Z,8.03
2023-05-10T04:02:07.514Z,8.09
2023-05-10T04:04:35.280Z,8.07
2023-05-10T04:07:03.200Z,8.17
2023-05-10T04:09:31.041Z,8.35
2023-05-10T04:11:58.831Z,8.48
2023-05-10T04:14:26.693Z,8.53
2023-05-10T04:16:54.529Z,8.59
2023-05-10T04:19:23.705Z,8.75
2023-05-10T04:21:51.476Z,8.87
2023-05-10T04:24:19.500Z,9.09
2023-05-10T04:26:47.548Z,9.21
2023-05-10T04:29:15.347Z,9.47
2023-05-10T04:31:43.330Z,9.56
2023-05-10T04:34:11.167Z,9.69
2023-05-10T04:36:40.306Z,9.83
2023-05-10T04:39:08.227Z,10.07
2023-05-10T04:41:36.171Z,10.26
2023-05-10T04:44:04.142Z,10.42
2023-05-10T04:46:32.357Z,10.55
2023-05-10T04:49:01.079Z,10.69
2023-05-10T04:51:28.934Z,10.90
2023-05-10T04:54:05.946Z,11.00
2023-05-10T04:56:35.602Z,11.21
2023-05-10T04:59:03.690Z,11.40
2023-05-10T05:01:31.523Z,11.44
2023-05-10T05:03:59.489Z,11.56
2023-05-10T05:06:28.256Z,11.67
2023-05-10T05:08:56.098Z,11.86
2023-05-10T05:11:26.551Z,11.98
2023-05-10T05:13:54.562Z,12.04
2023-05-10T05:16:22.501Z,12.22
2023-05-10T05:18:50.370Z,12.44
2023-05-10T05:21:19.132Z,12.54
2023-05-10T05:23:47.206Z,12.65
2023-05-10T05:26:16.050Z,12.71
2023-05-10T05:28:45.504Z,12.93
2023-05-10T05:31:13.306Z,13.13
2023-05-10T05:33:41.185Z,13.22
2023-05-10T05:36:09.224Z,13.33
2023-05-10T05:38:37.083Z,13.38
2023-05-10T05:41:05.052Z,13.49
2023-05-10T05:43:32.749Z,13.62
2023-05-10T05:46:01.906Z,13.71
2023-05-10T05:48:31.602Z,13.78
2023-05-10T05:50:59.644Z,13.97
2023-05-10T05:53:27.617Z,14.23
2023-05-10T05:55:56.078Z,14.35
2023-05-10T05:58:24.755Z,14.65
2023-05-10T06:00:54.260Z,14.73
2023-05-10T06:03:23.716Z,14.82
2023-05-10T06:05:55.749Z,14.91
2023-05-10T06:08:23.467Z,15.23
2023-05-10T06:10:51.198Z,15.44
2023-05-10T06:13:19.143Z,15.70
2023-05-10T06:15:47.296Z,15.60
2023-05-10T06:18:15.119Z,15.80
2023-05-10T06:20:44.939Z,15.77
2023-05-10T06:23:12.800Z,15.91
2023-05-10T06:25:40.563Z,16.16
2023-05-10T06:28:08.695Z,16.43
2023-05-10T06:30:38.632Z,16.27
2023-05-10T06:33:06.535Z,16.48
2023-05-10T06:35:34.700Z,16.81
2023-05-10T06:38:03.833Z,17.05
2023-05-10T06:40:31.638Z,17.24
2023-05-10T06:42:59.475Z,17.47
2023-05-10T06:45:27.316Z,17.45
2023-05-10T06:47:55.147Z,17.61
2023-05-10T06:50:23.131Z,17.89
2023-05-10T06:52:53.185Z,18.42
2023-05-10T06:55:22.771Z,18.62
2023-05-10T06:57:51.573Z,18.72
2023-05-10T07:00:21.126Z,18.68
2023-05-10T07:02:49.589Z,18.76
2023-05-10T07:05:17.911Z,18.78
2023-05-10T07:07:45.978Z,18.74
2023-05-10T07:10:13.751Z,19.21
2023-05-10T07:12:42.993Z,19.65
2023-05-10T07:15:11.492Z,19.99
2023-05-10T07:17:39.550Z,20.03
2023-05-10T07:20:09.245Z,20.26
2023-05-10T07:22:37.144Z,20.40
2023-05-10T07:25:05.329Z,20.77
2023-05-10T07:27:33.575Z,20.86
2023-05-10T07:30:02.697Z,20.82
2023-05-10T07:32:30.743Z,20.86
2023-05-10T07:34:58.672Z,21.14
2023-05-10T07:37:26.692Z,21.06
2023-05-10T07:39:54.467Z,20.79
2023-05-10T07:42:22.330Z,20.75
2023-05-10T07:44:50.109Z,20.69
2023-05-10T07:47:19.880Z,20.66
2023-05-10T07:49:47.697Z,20.80
2023-05-10T07:52:16.448Z,20.82
2023-05-10T07:54:44.326Z,21.01
2023-05-10T07:57:12.127Z,21.18
2023-05-10T07:59:39.921Z,21.46
2023-05-10T08:02:08.293Z,21.39
2023-05-10T08:04:37.554Z,21.17
2023-05-10T08:07:05.597Z,21.39
2023-05-10T08:09:33.437Z,21.50
2023-05-10T08:12:02.098Z,21.29
2023-05-10T08:14:31.477Z,21.75
2023-05-10T08:16:59.276Z,21.94
2023-05-10T08:19:27.079Z,21.94
2023-05-10T08:21:56.713Z,22.11
2023-05-10T08:24:24.922Z,22.54
2023-05-10T08:26:52.790Z,22.18
2023-05-10T08:29:21.610Z,22.50
2023-05-10T08:31:49.453Z,22.48
2023-05-10T08:34:17.426Z,22.65
2023-05-10T08:36:45.148Z,22.98
2023-05-10T08:39:26.610Z,23.56
2023-05-10T08:42:03.442Z,24.06
2023-05-10T08:44:32.967Z,24.22
2023-05-10T08:47:04.566Z,24.85
2023-05-10T08:49:33.791Z,25.10
2023-05-10T08:52:06.628Z,25.09
2023-05-10T08:54:36.526Z,24.82
2023-05-10T08:57:04.628Z,24.51
2023-05-10T08:59:32.957Z,24.60
2023-05-10T09:02:01.287Z,24.70
2023-05-10T09:04:30.326Z,25.40
2023-05-10T09:06:59.324Z,25.79
2023-05-10T09:09:27.847Z,24.95
2023-05-10T09:11:57.403Z,25.07
2023-05-10T09:14:28.167Z,25.11
2023-05-10T09:16:56.990Z,25.07
2023-05-10T09:19:25.041Z,24.63
2023-05-10T09:21:52.866Z,25.00
2023-05-10T09:24:20.815Z,25.36
2023-05-10T09:26:50.364Z,25.49
2023-05-10T09:29:19.576Z,25.37
2023-05-10T09:31:49.238Z,26.10
2023-05-10T09:34:19.972Z,26.69
2023-05-10T09:36:55.663Z,26.94
2023-05-10T09:39:32.426Z,27.23
2023-05-10T09:42:00.600Z,27.73
2023-05-10T09:44:29.790Z,27.49
2023-05-10T09:46:58.049Z,26.39
2023-05-10T09:49:25.986Z,26.39
2023-05-10T09:52:04.734Z,26.77
2023-05-10T09:54:33.128Z,27.99
2023-05-10T09:57:01.752Z,28.07
2023-05-10T09:59:36.218Z,28.13
2023-05-10T10:02:04.781Z,27.92
2023-05-10T10:04:33.825Z,27.87
2023-05-10T10:07:03.652Z,28.38
2023-05-10T10:09:32.078Z,27.84
2023-05-10T10:12:01.074Z,27.70
2023-05-10T10:14:29.439Z,28.29
2023-05-10T10:19:30.212Z,28.24
2023-05-10T10:21:58.613Z,29.14
2023-05-10T10:24:26.474Z,29.33
2023-05-10T10:26:57.327Z,29.19
2023-05-10T10:29:28.698Z,28.60
2023-05-10T10:32:10.064Z,28.51
2023-05-10T10:34:37.942Z,27.73
2023-05-10T10:37:07.648Z,28.27
2023-05-10T10:39:37.589Z,28.81
2023-05-10T10:42:06.521Z,29.62
2023-05-10T10:44:42.669Z,29.65
2023-05-10T10:47:30.123Z,29.21
2023-05-10T10:50:06.466Z,28.09
2023-05-10T10:52:35.524Z,28.49
2023-05-10T10:55:06.279Z,28.45
2023-05-10T10:57:35.716Z,28.43
2023-05-10T11:00:26.848Z,28.95
2023-05-10T11:02:58.140Z,28.99
2023-05-10T11:05:40.546Z,29.09
2023-05-10T11:08:17.292Z,29.19
2023-05-10T11:11:04.307Z,29.01
2023-05-10T11:13:33.923Z,28.66
2023-05-10T11:16:12.717Z,28.44
2023-05-10T11:18:42.178Z,28.21
2023-05-10T11:21:11.867Z,27.97
2023-05-10T11:23:53.211Z,27.09
2023-05-10T11:26:24.221Z,27.64
2023-05-10T11:28:52.269Z,29.23
2023-05-10T11:31:21.901Z,29.29
2023-05-10T11:33:53.093Z,28.61
2023-05-10T11:36:22.082Z,28.18
2023-05-10T11:38:50.583Z,27.93
2023-05-10T11:41:20.160Z,28.45
2023-05-10T11:43:50.027Z,27.97
2023-05-10T11:46:21.304Z,27.48
2023-05-10T11:48:52.228Z,27.78
2023-05-10T11:51:24.020Z,27.50
2023-05-10T11:53:52.608Z,28.12
2023-05-10T11:56:21.664Z,28.58
2023-05-10T11:58:56.484Z,29.11
2023-05-10T12:01:24.817Z,28.53
2023-05-10T12:03:59.619Z,28.72
2023-05-10T12:06:32.080Z,28.33
2023-05-10T12:09:08.084Z,28.16
2023-05-10T12:11:43.927Z,28.37
2023-05-10T12:14:12.538Z,28.21
2023-05-10T12:16:40.716Z,28.83
2023-05-10T12:19:10.185Z,28.91
2023-05-10T12:21:39.728Z,28.19
2023-05-10T12:24:07.777Z,27.88
2023-05-10T12:26:37.313Z,26.97
2023-05-10T12:32:02.409Z,27.91
2023-05-10T12:34:36.077Z,27.85
2023-05-10T12:37:04.894Z,27.42
2023-05-10T12:39:42.531Z,27.13
2023-05-10T12:42:10.441Z,27.71
2023-05-10T12:44:38.341Z,27.66
2023-05-10T12:47:06.873Z,27.31
2023-05-10T12:49:36.406Z,27.39
2023-05-10T12:52:04.291Z,27.15
2023-05-10T12:54:32.108Z,27.51
2023-05-10T12:57:00.069Z,27.34
2023-05-10T12:59:27.940Z,27.01
2023-05-10T13:01:57.156Z,26.79
2023-05-10T13:04:26.795Z,26.35
2023-05-10T13:06:59.470Z,26.30
2023-05-10T13:09:27.418Z,26.09
2023-05-10T13:11:55.281Z,26.81
2023-05-10T13:14:23.251Z,27.76
2023-05-10T13:16:51.135Z,27.01
2023-05-10T13:19:19.516Z,27.45
2023-05-10T13:21:47.492Z,27.57
2023-05-10T13:24:16.804Z,26.54
2023-05-10T13:26:45.188Z,25.59
2023-05-10T13:29:13.180Z,25.65
2023-05-10T13:31:41.002Z,25.69
2023-05-10T13:34:08.869Z,26.35
2023-05-10T13:36:36.648Z,25.63
2023-05-10T13:39:06.301Z,24.90
2023-05-10T13:41:35.562Z,25.40
2023-05-10T13:44:03.371Z,25.23
2023-05-10T13:46:31.649Z,25.72
2023-05-10T13:48:59.499Z,25.52
2023-05-10T13:51:27.418Z,25.41
2023-05-10T13:53:55.234Z,26.00
2023-05-10T13:56:23.084Z,26.53
2023-05-10T13:58:53.303Z,26.36
2023-05-10T14:01:21.190Z,26.50
2023-05-10T14:03:49.284Z,26.90
2023-05-10T14:06:20.915Z,26.28
2023-05-10T14:08:48.802Z,26.17
2023-05-10T14:11:16.633Z,26.84
2023-05-10T14:13:44.424Z,27.28
2023-05-10T14:16:15.734Z,27.22
2023-05-10T14:18:43.681Z,27.43
2023-05-10T14:21:11.520Z,26.66
2023-05-10T14:23:39.333Z,26.07
2023-05-10T14:26:07.462Z,26.18
2023-05-10T14:28:35.288Z,26.60
2023-05-10T14:31:03.473Z,27.40
2023-05-10T14:33:32.598Z,27.28
2023-05-10T14:36:01.058Z,26.56
2023-05-10T14:38:28.917Z,27.52
2023-05-10T14:40:56.995Z,27.24
2023-05-10T14:43:24.767Z,26.95
2023-05-10T14:45:52.705Z,26.35
2023-05-10T14:48:22.214Z,26.56
2023-05-10T14:50:53.547Z,27.29
2023-05-10T14:53:21.545Z,27.29
2023-05-10T14:55:49.320Z,26.92
2023-05-10T14:58:17.522Z,27.25
2023-05-10T15:00:45.572Z,28.00
2023-05-10T15:03:14.194Z,27.57
2023-05-10T15:05:42.547Z,27.22
2023-05-10T15:08:13.531Z,26.77
2023-05-10T15:10:41.330Z,26.01
2023-05-10T15:13:09.081Z,25.87
2023-05-10T15:15:37.110Z,25.30
2023-05-10T15:18:05.701Z,25.85
2023-05-10T15:20:33.534Z,26.11
2023-05-10T15:23:01.622Z,24.96
2023-05-10T15:25:30.916Z,25.06
2023-05-10T15:27:59.161Z,24.96
2023-05-10T15:30:27.035Z,24.23
2023-05-10T15:32:54.913Z,24.34
2023-05-10T15:35:22.926Z,24.53
2023-05-10T15:37:50.918Z,25.12
2023-05-10T15:40:19.049Z,25.89
2023-05-10T15:42:48.280Z,25.56
2023-05-10T15:45:16.843Z,24.91
2023-05-10T15:47:45.303Z,24.32
2023-05-10T15:50:13.423Z,24.46
2023-05-10T15:52:41.265Z,24.68
2023-05-10T15:55:14.164Z,24.45
2023-05-10T15:57:42.893Z,23.91
2023-05-10T16:00:13.938Z,23.06
2023-05-10T16:02:42.212Z,22.76
2023-05-10T16:05:10.893Z,22.87
2023-05-10T16:07:39.766Z,22.65
2023-05-10T16:10:09.768Z,22.08
2023-05-10T16:12:37.624Z,22.20
2023-05-10T16:15:05.990Z,21.50
2023-05-10T16:17:35.216Z,21.36
2023-05-10T16:20:03.167Z,20.87
2023-05-10T16:22:31.059Z,20.32
2023-05-10T16:25:00.760Z,19.96
2023-05-10T16:27:30.301Z,20.01
2023-05-10T16:29:58.275Z,19.90
2023-05-10T16:32:26.255Z,19.78
2023-05-10T16:34:55.410Z,19.03
2023-05-10T16:37:23.178Z,17.99
2023-05-10T16:39:51.050Z,17.31
2023-05-10T16:42:19.017Z,16.95
2023-05-10T16:44:47.596Z,16.91
2023-05-10T16:47:15.421Z,16.77
2023-05-10T16:49:43.289Z,16.62
2023-05-10T16:52:12.485Z,16.52
2023-05-10T16:54:40.345Z,16.30
2023-05-10T16:57:08.629Z,16.11
2023-05-10T16:59:36.537Z,16.18
2023-05-10T17:02:04.571Z,16.18
2023-05-10T17:04:32.430Z,16.09
2023-05-10T17:07:00.441Z,15.99
2023-05-10T17:09:29.627Z,15.89
2023-05-10T17:11:57.545Z,15.83
2023-05-10T17:14:26.160Z,15.70
2023-05-10T17:16:55.507Z,15.67
2023-05-10T17:19:26.434Z,15.60
2023-05-10T17:21:54.560Z,15.54
2023-05-10T17:24:22.423Z,15.48
2023-05-10T17:26:51.620Z,15.38
2023-05-10T17:29:19.470Z,15.31
2023-05-10T17:31:47.518Z,15.18
2023-05-10T17:34:15.379Z,15.15
2023-05-10T17:36:43.454Z,15.03
2023-05-10T17:39:11.287Z,14.98
2023-05-10T17:41:39.027Z,14.86
2023-05-10T17:44:08.422Z,14.80
2023-05-10T17:46:36.476Z,14.70
2023-05-10T17:49:04.345Z,14.63
2023-05-10T17:51:32.585Z,14.55
2023-05-10T17:54:00.353Z,14.42
2023-05-10T17:56:28.831Z,14.32
2023-05-10T17:58:56.767Z,14.28
2023-05-10T18:01:25.943Z,14.19
2023-05-10T18:03:53.875Z,14.12
2023-05-10T18:06:21.676Z,14.06
2023-05-10T18:08:49.444Z,14.03
2023-05-10T18:11:18.599Z,13.92
2023-05-10T18:13:48.061Z,13.84
2023-05-10T18:16:16.153Z,13.77
2023-05-10T18:18:45.391Z,13.72
2023-05-10T18:21:13.471Z,13.69
2023-05-10T18:23:41.193Z,13.68
2023-05-10T18:26:09.256Z,13.62
2023-05-10T18:28:37.578Z,13.46
2023-05-10T18:31:05.596Z,13.43
2023-05-10T18:33:33.484Z,13.41
2023-05-10T18:36:02.882Z,13.35
2023-05-10T18:38:31.011Z,13.35
2023-05-10T18:40:58.770Z,13.27
2023-05-10T18:43:26.646Z,13.21
2023-05-10T18:45:54.595Z,13.13
2023-05-10T18:48:22.456Z,12.98
2023-05-10T18:50:50.207Z,12.83
2023-05-10T18:53:19.379Z,12.74
2023-05-10T18:55:47.251Z,12.51
2023-05-10T18:58:15.081Z,12.44
2023-05-10T19:00:43.433Z,12.31
2023-05-10T19:03:12.069Z,12.17
2023-05-10T19:05:39.798Z,12.03
2023-05-10T19:08:07.734Z,11.78
2023-05-10T19:10:37.005Z,11.82
2023-05-10T19:13:04.979Z,11.67
2023-05-10T19:15:33.441Z,11.35
2023-05-10T19:18:05.109Z,11.14
2023-05-10T19:20:33.235Z,10.78
2023-05-10T19:23:09.546Z,10.45
2023-05-10T19:25:39.675Z,10.38
2023-05-10T19:28:09.676Z,10.32
2023-05-10T19:30:37.883Z,10.13
2023-05-10T19:33:06.113Z,9.85
2023-05-10T19:35:34.038Z,9.74
2023-05-10T19:38:02.143Z,9.58
2023-05-10T19:40:29.898Z,9.53
2023-05-10T19:43:00.494Z,9.37
2023-05-10T19:45:28.521Z,9.37
2023-05-10T19:47:56.417Z,9.17
2023-05-10T19:50:24.354Z,9.14
2023-05-10T19:52:52.421Z,8.96
2023-05-10T19:55:28.465Z,8.74
2023-05-10T19:57:56.687Z,8.88
2023-05-10T20:00:27.295Z,8.67
2023-05-10T20:02:55.400Z,8.61
2023-05-10T20:05:23.415Z,8.80
2023-05-10T20:07:51.587Z,8.67
2023-05-10T20:10:19.870Z,8.75
2023-05-10T20:12:52.439Z,8.80
2023-05-10T20:15:21.807Z,8.65
2023-05-10T20:17:52.716Z,8.45
2023-05-10T20:20:21.390Z,8.28
2023-05-10T20:22:50.448Z,8.07
2023-05-10T20:25:19.380Z,7.99
2023-05-10T20:27:47.298Z,7.99
2023-05-10T20:30:15.555Z,7.91
2023-05-10T20:32:43.715Z,8.05
2023-05-10T20:35:13.163Z,8.24
2023-05-10T20:37:41.883Z,8.27
2023-05-10T20:40:11.100Z,8.21
2023-05-10T20:42:38.927Z,8.29
2023-05-10T20:45:07.910Z,8.32
2023-05-10T20:47:36.832Z,8.30
2023-05-10T20:50:05.005Z,8.49
2023-05-10T20:52:34.141Z,8.50
2023-05-10T20:55:02.019Z,8.32
2023-05-10T20:57:29.846Z,8.42
2023-05-10T20:59:58.135Z,8.27
2023-05-10T21:02:26.116Z,8.17
2023-05-10T21:04:57.045Z,8.08
2023-05-10T21:07:25.624Z,8.02
2023-05-10T21:09:54.798Z,8.13
2023-05-10T21:12:22.585Z,8.06
2023-05-10T21:14:50.391Z,7.93
2023-05-10T21:17:20.001Z,7.91
2023-05-10T21:19:48.104Z,7.71
2023-05-10T21:22:16.082Z,7.56
2023-05-10T21:24:44.307Z,7.91
2023-05-10T21:27:13.455Z,8.11
2023-05-10T21:29:41.289Z,8.01
2023-05-10T21:32:09.652Z,7.92
2023-05-10T21:34:37.619Z,7.97
2023-05-10T21:37:05.451Z,7.78
2023-05-10T21:39:33.170Z,7.88
2023-05-10T21:42:00.919Z,7.94
2023-05-10T21:44:30.784Z,7.75
2023-05-10T21:46:58.505Z,7.58
2023-05-10T21:49:26.443Z,7.49
2023-05-10T21:51:54.345Z,7.35
2023-05-10T21:54:22.139Z,7.21
2023-05-10T21:56:49.863Z,7.38
2023-05-10T21:59:18.045Z,7.23
2023-05-10T22:01:47.390Z,7.13
2023-05-10T22:04:15.307Z,7.24
2023-05-10T22:06:43.118Z,7.03
2023-05-10T22:09:11.149Z,6.95
2023-05-10T22:11:38.988Z,6.77
2023-05-10T22:14:07.107Z,6.83
2023-05-10T22:16:35.530Z,6.72
2023-05-10T22:19:06.785Z,6.63
2023-05-10T22:21:34.684Z,6.69
2023-05-10T22:24:02.488Z,6.58
2023-05-10T22:26:30.574Z,6.48
2023-05-10T22:28:58.290Z,6.35
2023-05-10T22:31:26.195Z,6.32
2023-05-10T22:33:54.025Z,6.23
2023-05-10T22:36:23.299Z,6.11
2023-05-10T22:38:51.487Z,5.98
2023-05-10T22:41:19.331Z,5.98
2023-05-10T22:43:47.196Z,5.79
2023-05-10T22:46:15.368Z,5.79
2023-05-10T22:48:44.244Z,5.83
2023-05-10T22:51:12.087Z,5.81
2023-05-10T22:53:41.385Z,5.69
2023-05-10T22:56:09.208Z,5.77
2023-05-10T22:58:36.971Z,5.79
2023-05-10T23:01:05.410Z,5.61
2023-05-10T23:03:33.186Z,5.48
2023-05-10T23:06:00.973Z,5.33
2023-05-10T23:08:28.780Z,5.25
2023-05-10T23:10:57.865Z,5.42
2023-05-10T23:13:25.714Z,5.36
2023-05-10T23:15:53.679Z,5.29
2023-05-10T23:18:21.709Z,5.24
2023-05-10T23:20:49.449Z,5.09
